createdAt,value
2018-02-20T00:00:10.724Z,210.00
2018-02-20T00:00:48.739Z,210.00
2018-02-20T00:01:24.291Z,210.00
2018-02-20T00:02:00.402Z,210.00
2018-02-20T00:02:35.753Z,210.00
2018-02-20T00:03:11.058Z,210.00
2018-02-20T00:03:46.778Z,210.00
2018-02-20T00:04:22.224Z,210.00
2018-02-20T00:04:57.506Z,210.00
2018-02-20T00:05:32.758Z,210.00
2018-02-20T00:06:07.820Z,210.00
2018-02-20T00:06:43.209Z,210.00
2018-02-20T00:07:18.321Z,210.00
2018-02-20T00:07:53.492Z,210.00
2018-02-20T00:08:29.133Z,210.00
2018-02-20T00:09:04.738Z,210.00
2018-02-20T00:09:40.239Z,210.00
2018-02-20T00:10:15.655Z,210.00
2018-02-20T00:10:50.936Z,210.00
2018-02-20T00:11:26.485Z,210.00
2018-02-20T00:12:01.720Z,198.42
2018-02-20T00:12:37.006Z,120.00
2018-02-20T00:13:12.530Z,123.29
2018-02-20T00:13:47.816Z,255.00
2018-02-20T00:14:23.028Z,255.00
2018-02-20T00:14:58.639Z,255.00
2018-02-20T00:15:34.037Z,255.00
2018-02-20T00:16:09.492Z,255.00
2018-02-20T00:16:44.693Z,255.00
2018-02-20T00:17:20.120Z,255.00
2018-02-20T00:17:55.713Z,255.00
2018-02-20T00:18:31.200Z,255.00
2018-02-20T00:19:06.426Z,255.00
2018-02-20T00:19:41.818Z,255.00
2018-02-20T00:20:17.329Z,255.00
2018-02-20T00:20:52.544Z,255.00
2018-02-20T00:21:28.068Z,250.25
2018-02-20T00:22:03.372Z,210.00
2018-02-20T00:22:38.745Z,219.94
2018-02-20T00:23:14.262Z,210.00
2018-02-20T00:23:49.837Z,210.00
2018-02-20T00:24:25.140Z,128.86
2018-02-20T00:25:00.329Z,120.00
2018-02-20T00:25:35.619Z,120.00
2018-02-20T00:26:10.882Z,120.00
2018-02-20T00:26:46.156Z,120.00
2018-02-20T00:27:21.556Z,120.00
2018-02-20T00:27:56.877Z,120.00
2018-02-20T00:28:32.563Z,120.00
2018-02-20T00:29:07.880Z,120.00
2018-02-20T00:29:43.353Z,120.00
2018-02-20T00:30:18.996Z,235.85
2018-02-20T00:30:54.290Z,246.21
2018-02-20T00:31:29.604Z,71.91
2018-02-20T00:32:05.022Z,105.11
2018-02-20T00:32:40.736Z,120.00
2018-02-20T00:33:16.323Z,135.64
2018-02-20T00:33:51.691Z,165.00
2018-02-20T00:34:27.208Z,165.00
2018-02-20T00:35:02.725Z,165.00
2018-02-20T00:35:37.795Z,165.00
2018-02-20T00:36:12.914Z,165.00
2018-02-20T00:36:48.317Z,124.05
2018-02-20T00:37:23.813Z,80.67
2018-02-20T00:37:58.991Z,69.78
2018-02-20T00:38:34.710Z,207.34
2018-02-20T00:39:09.990Z,177.39
2018-02-20T00:39:45.285Z,79.93
2018-02-20T00:40:20.366Z,242.35
2018-02-20T00:40:55.635Z,24.55
2018-02-20T00:41:30.902Z,255.00
2018-02-20T00:42:06.107Z,255.00
2018-02-20T00:42:41.169Z,280.06
2018-02-20T00:43:16.647Z,123.48
2018-02-20T00:43:51.924Z,120.00
2018-02-20T00:44:27.246Z,63.24
2018-02-20T00:45:02.657Z,56.74
2018-02-20T00:45:38.314Z,324.07
2018-02-20T00:46:13.635Z,95.32
2018-02-20T00:46:49.067Z,30.00
2018-02-20T00:47:24.461Z,28.37
2018-02-20T00:47:59.829Z,318.08
2018-02-20T00:48:35.258Z,300.00
2018-02-20T00:49:10.762Z,247.74
2018-02-20T00:49:46.251Z,210.00
2018-02-20T00:50:21.658Z,149.83
2018-02-20T00:50:57.129Z,120.00
2018-02-20T00:51:32.375Z,115.25
2018-02-20T00:52:07.802Z,75.00
2018-02-20T00:52:42.981Z,263.51
2018-02-20T00:53:18.480Z,255.00
2018-02-20T00:53:53.667Z,131.95
2018-02-20T00:54:28.988Z,120.00
2018-02-20T00:55:04.690Z,120.00
2018-02-20T00:55:39.875Z,120.00
2018-02-20T00:56:15.198Z,120.00
2018-02-20T00:56:50.709Z,246.23
2018-02-20T00:57:26.042Z,255.00
2018-02-20T00:58:01.142Z,75.72
2018-02-20T00:58:36.720Z,75.00
2018-02-20T00:59:11.821Z,75.00
2018-02-20T00:59:47.393Z,75.00
2018-02-20T01:00:22.699Z,75.00
2018-02-20T01:01:01.367Z,75.00
2018-02-20T01:01:36.848Z,75.00
2018-02-20T01:02:12.075Z,75.00
2018-02-20T01:02:47.551Z,75.00
2018-02-20T01:03:22.660Z,75.00
2018-02-20T01:03:58.063Z,75.00
2018-02-20T01:04:33.285Z,75.00
2018-02-20T01:05:09.083Z,75.00
2018-02-20T01:05:44.578Z,75.00
2018-02-20T01:06:20.089Z,75.00
2018-02-20T01:06:55.799Z,75.00
2018-02-20T01:07:31.911Z,75.00
2018-02-20T01:08:07.309Z,75.00
2018-02-20T01:08:42.777Z,75.00
2018-02-20T01:09:18.493Z,75.00
2018-02-20T01:09:53.689Z,54.92
2018-02-20T01:10:28.844Z,8.03
2018-02-20T01:11:04.235Z,63.06
2018-02-20T01:11:39.524Z,66.62
2018-02-20T01:12:14.971Z,37.54
2018-02-20T01:12:50.146Z,131.26
2018-02-20T01:13:25.651Z,75.00
2018-02-20T01:14:00.930Z,65.10
2018-02-20T01:14:36.438Z,75.00
2018-02-20T01:15:11.949Z,75.00
2018-02-20T01:15:47.215Z,70.97
2018-02-20T01:16:22.738Z,75.00
2018-02-20T01:16:58.166Z,43.43
2018-02-20T01:17:33.390Z,57.84
2018-02-20T01:18:08.608Z,67.44
2018-02-20T01:18:44.104Z,44.14
2018-02-20T01:19:19.643Z,62.85
2018-02-20T01:19:55.125Z,65.59
2018-02-20T01:20:30.327Z,75.00
2018-02-20T01:21:05.728Z,60.86
2018-02-20T01:21:41.008Z,75.31
2018-02-20T01:22:16.168Z,69.96
2018-02-20T01:22:51.692Z,68.13
2018-02-20T01:23:27.147Z,74.31
2018-02-20T01:24:02.639Z,63.08
2018-02-20T01:24:38.032Z,75.00
2018-02-20T01:25:13.143Z,75.00
2018-02-20T01:25:50.186Z,49.47
2018-02-20T01:26:25.833Z,212.29
2018-02-20T01:27:01.264Z,109.46
2018-02-20T01:27:36.692Z,120.00
2018-02-20T01:28:12.128Z,60.22
2018-02-20T01:28:47.702Z,74.25
2018-02-20T01:29:23.046Z,87.13
2018-02-20T01:29:58.257Z,75.00
2018-02-20T01:30:33.589Z,72.27
2018-02-20T01:31:09.126Z,70.97
2018-02-20T01:31:44.507Z,78.53
2018-02-20T01:32:19.741Z,66.74
2018-02-20T01:32:57.508Z,75.00
2018-02-20T01:33:32.921Z,52.82
2018-02-20T01:34:08.260Z,75.00
2018-02-20T01:34:43.471Z,44.93
2018-02-20T01:35:18.579Z,47.66
2018-02-20T01:35:54.153Z,68.17
2018-02-20T01:36:29.769Z,66.01
2018-02-20T01:37:05.122Z,77.90
2018-02-20T01:37:40.524Z,43.55
2018-02-20T01:38:16.032Z,47.22
2018-02-20T01:38:51.436Z,57.20
2018-02-20T01:39:26.863Z,71.70
2018-02-20T01:40:02.292Z,56.68
2018-02-20T01:40:37.987Z,43.55
2018-02-20T01:41:13.525Z,75.00
2018-02-20T01:41:48.920Z,75.00
2018-02-20T01:42:24.489Z,75.00
2018-02-20T01:42:59.975Z,75.00
2018-02-20T01:43:35.387Z,75.00
2018-02-20T01:44:10.623Z,78.53
2018-02-20T01:44:46.022Z,258.92
2018-02-20T01:45:21.335Z,75.00
2018-02-20T01:45:56.739Z,75.00
2018-02-20T01:46:32.047Z,75.00
2018-02-20T01:47:07.454Z,75.00
2018-02-20T01:47:42.857Z,75.00
2018-02-20T01:48:18.211Z,75.00
2018-02-20T01:48:53.439Z,75.00
2018-02-20T01:49:28.758Z,75.00
2018-02-20T01:50:04.087Z,75.00
2018-02-20T01:50:40.406Z,85.93
2018-02-20T01:51:15.940Z,121.55
2018-02-20T01:51:51.256Z,75.00
2018-02-20T01:52:26.854Z,75.00
2018-02-20T01:53:02.483Z,98.04
2018-02-20T01:53:37.682Z,210.00
2018-02-20T01:54:12.928Z,210.00
2018-02-20T01:54:48.239Z,210.00
2018-02-20T01:55:23.470Z,210.00
2018-02-20T01:55:58.996Z,176.57
2018-02-20T01:56:34.231Z,165.00
2018-02-20T01:57:09.486Z,165.00
2018-02-20T01:57:44.634Z,165.00
2018-02-20T01:58:20.354Z,165.00
2018-02-20T01:58:55.651Z,165.00
2018-02-20T01:59:30.903Z,165.00
2018-02-20T02:00:06.232Z,165.00
2018-02-20T02:00:44.237Z,165.00
2018-02-20T02:01:19.578Z,165.00
2018-02-20T02:01:55.477Z,165.00
2018-02-20T02:02:31.300Z,165.00
2018-02-20T02:03:06.466Z,124.03
2018-02-20T02:03:41.876Z,165.00
2018-02-20T02:04:17.329Z,165.00
2018-02-20T02:04:59.219Z,165.00
2018-02-20T02:05:36.146Z,165.00
2018-02-20T02:06:11.667Z,165.00
2018-02-20T02:06:47.065Z,165.00
2018-02-20T02:07:22.523Z,165.00
2018-02-20T02:07:57.919Z,165.00
2018-02-20T02:08:33.374Z,165.00
2018-02-20T02:09:08.944Z,165.00
2018-02-20T02:09:44.453Z,165.00
2018-02-20T02:10:19.868Z,165.00
2018-02-20T02:10:55.268Z,165.00
2018-02-20T02:11:30.809Z,165.00
2018-02-20T02:12:06.281Z,165.00
2018-02-20T02:12:41.900Z,165.00
2018-02-20T02:13:17.333Z,165.00
2018-02-20T02:13:52.906Z,165.00
2018-02-20T02:14:28.419Z,165.00
2018-02-20T02:15:03.780Z,165.00
2018-02-20T02:15:39.237Z,165.00
2018-02-20T02:16:14.946Z,165.00
2018-02-20T02:16:50.538Z,165.00
2018-02-20T02:17:25.646Z,165.00
2018-02-20T02:18:01.350Z,165.00
2018-02-20T02:18:37.091Z,165.00
2018-02-20T02:19:12.409Z,165.00
2018-02-20T02:19:47.715Z,165.00
2018-02-20T02:20:23.126Z,165.00
2018-02-20T02:20:58.618Z,165.00
2018-02-20T02:21:34.421Z,165.00
2018-02-20T02:22:09.923Z,165.00
2018-02-20T02:22:45.399Z,165.00
2018-02-20T02:23:20.792Z,165.00
2018-02-20T02:23:55.980Z,165.00
2018-02-20T02:24:31.393Z,165.00
2018-02-20T02:25:06.701Z,165.00
2018-02-20T02:25:42.369Z,165.00
2018-02-20T02:26:17.474Z,165.00
2018-02-20T02:26:52.928Z,165.00
2018-02-20T02:27:28.439Z,165.00
2018-02-20T02:28:03.651Z,165.00
2018-02-20T02:28:39.151Z,165.00
2018-02-20T02:29:14.462Z,165.00
2018-02-20T02:29:49.953Z,165.00
2018-02-20T02:30:25.265Z,165.00
2018-02-20T02:31:00.656Z,165.00
2018-02-20T02:31:36.190Z,165.00
2018-02-20T02:32:11.596Z,184.89
2018-02-20T02:32:46.681Z,120.00
2018-02-20T02:33:22.025Z,120.00
2018-02-20T02:33:57.430Z,120.00
2018-02-20T02:34:32.953Z,120.00
2018-02-20T02:35:08.458Z,120.00
2018-02-20T02:35:43.667Z,120.00
2018-02-20T02:36:18.867Z,120.00
2018-02-20T02:36:54.267Z,120.00
2018-02-20T02:37:29.565Z,120.00
2018-02-20T02:38:04.975Z,120.00
2018-02-20T02:38:40.238Z,120.00
2018-02-20T02:39:15.460Z,248.86
2018-02-20T02:39:50.951Z,251.63
2018-02-20T02:40:26.242Z,165.00
2018-02-20T02:41:01.755Z,165.00
2018-02-20T02:41:37.066Z,165.00
2018-02-20T02:42:12.275Z,165.00
2018-02-20T02:42:47.476Z,213.41
2018-02-20T02:43:22.763Z,210.00
2018-02-20T02:43:58.269Z,187.74
2018-02-20T02:44:33.790Z,120.00
2018-02-20T02:45:10.324Z,122.66
2018-02-20T02:45:46.640Z,277.22
2018-02-20T02:46:21.826Z,210.00
2018-02-20T02:46:57.008Z,210.00
2018-02-20T02:47:32.203Z,210.00
2018-02-20T02:48:07.437Z,210.00
2018-02-20T02:48:42.910Z,210.00
2018-02-20T02:49:18.538Z,210.00
2018-02-20T02:49:54.303Z,210.00
2018-02-20T02:50:29.816Z,239.36
2018-02-20T02:51:05.308Z,210.00
2018-02-20T02:51:40.493Z,210.00
2018-02-20T02:52:15.899Z,210.00
2018-02-20T02:52:51.275Z,210.00
2018-02-20T02:53:26.580Z,210.00
2018-02-20T02:54:01.928Z,210.00
2018-02-20T02:54:37.215Z,210.00
2018-02-20T02:55:12.701Z,210.00
2018-02-20T02:55:48.097Z,204.06
2018-02-20T02:56:23.621Z,75.00
2018-02-20T02:56:58.605Z,75.00
2018-02-20T02:57:33.891Z,75.00
2018-02-20T02:58:09.285Z,75.00
2018-02-20T02:58:44.652Z,75.00
2018-02-20T02:59:20.283Z,75.00
2018-02-20T02:59:55.767Z,75.00
2018-02-20T03:00:31.403Z,85.48
2018-02-20T03:01:06.411Z,120.00
2018-02-20T03:01:42.416Z,204.58
2018-02-20T03:02:17.734Z,255.00
2018-02-20T03:02:52.820Z,250.97
2018-02-20T03:03:28.136Z,210.00
2018-02-20T03:04:03.756Z,210.00
2018-02-20T03:04:39.122Z,210.00
2018-02-20T03:05:14.566Z,210.00
2018-02-20T03:05:49.866Z,210.00
2018-02-20T03:06:25.157Z,210.00
2018-02-20T03:07:00.437Z,210.00
2018-02-20T03:07:35.728Z,210.00
2018-02-20T03:08:11.128Z,210.00
2018-02-20T03:08:46.613Z,210.00
2018-02-20T03:09:21.972Z,210.00
2018-02-20T03:09:57.184Z,210.00
2018-02-20T03:10:32.306Z,210.00
2018-02-20T03:11:08.107Z,210.00
2018-02-20T03:11:43.472Z,209.18
2018-02-20T03:12:18.787Z,255.00
2018-02-20T03:12:53.878Z,255.00
2018-02-20T03:13:29.388Z,198.05
2018-02-20T03:14:04.708Z,210.00
2018-02-20T03:14:40.128Z,210.00
2018-02-20T03:15:15.440Z,213.51
2018-02-20T03:15:50.606Z,179.82
2018-02-20T03:16:25.969Z,241.77
2018-02-20T03:17:01.065Z,215.25
2018-02-20T03:17:36.574Z,229.54
2018-02-20T03:18:11.792Z,231.12
2018-02-20T03:18:47.067Z,214.43
2018-02-20T03:19:22.206Z,120.00
2018-02-20T03:19:57.395Z,94.47
2018-02-20T03:20:32.821Z,75.00
2018-02-20T03:21:08.039Z,71.81
2018-02-20T03:21:43.513Z,149.46
2018-02-20T03:22:18.845Z,52.44
2018-02-20T03:22:53.842Z,75.00
2018-02-20T03:23:29.265Z,75.00
2018-02-20T03:24:04.873Z,157.27
2018-02-20T03:24:40.177Z,120.00
2018-02-20T03:25:15.594Z,229.19
2018-02-20T03:25:50.988Z,158.17
2018-02-20T03:26:26.482Z,165.00
2018-02-20T03:27:01.985Z,165.00
2018-02-20T03:27:37.463Z,205.99
2018-02-20T03:28:12.783Z,113.15
2018-02-20T03:28:48.922Z,30.00
2018-02-20T03:29:24.458Z,30.00
2018-02-20T03:29:59.744Z,82.86
2018-02-20T03:30:35.078Z,72.13
2018-02-20T03:31:10.377Z,57.09
2018-02-20T03:31:46.066Z,75.00
2018-02-20T03:32:21.385Z,75.00
2018-02-20T03:32:56.760Z,81.26
2018-02-20T03:33:31.990Z,64.07
2018-02-20T03:34:07.496Z,30.00
2018-02-20T03:34:43.216Z,297.45
2018-02-20T03:35:18.848Z,255.00
2018-02-20T03:35:55.149Z,255.00
2018-02-20T03:36:30.250Z,255.00
2018-02-20T03:37:05.760Z,255.00
2018-02-20T03:37:41.265Z,246.74
2018-02-20T03:38:17.014Z,148.68
2018-02-20T03:38:52.206Z,170.42
2018-02-20T03:39:27.638Z,165.00
2018-02-20T03:40:02.760Z,165.00
2018-02-20T03:40:38.731Z,165.00
2018-02-20T03:41:13.935Z,165.00
2018-02-20T03:41:49.206Z,150.11
2018-02-20T03:42:24.650Z,120.00
2018-02-20T03:43:00.000Z,120.00
2018-02-20T03:43:35.527Z,140.63
2018-02-20T03:44:10.939Z,204.64
2018-02-20T03:44:46.355Z,247.98
2018-02-20T03:45:21.664Z,153.68
2018-02-20T03:45:57.666Z,93.88
2018-02-20T03:46:32.975Z,204.18
2018-02-20T03:47:08.418Z,210.00
2018-02-20T03:47:43.605Z,210.00
2018-02-20T03:48:18.895Z,210.00
2018-02-20T03:48:54.514Z,210.00
2018-02-20T03:49:29.821Z,210.00
2018-02-20T03:50:05.167Z,210.00
2018-02-20T03:50:41.364Z,210.00
2018-02-20T03:51:16.682Z,197.75
2018-02-20T03:51:52.296Z,228.52
2018-02-20T03:52:27.598Z,210.00
2018-02-20T03:53:03.024Z,149.37
2018-02-20T03:53:38.422Z,69.53
2018-02-20T03:54:13.829Z,75.00
2018-02-20T03:54:49.159Z,75.00
2018-02-20T03:55:24.483Z,75.00
2018-02-20T03:55:59.964Z,82.59
2018-02-20T03:56:35.200Z,75.00
2018-02-20T03:57:10.718Z,80.53
2018-02-20T03:57:46.216Z,59.62
2018-02-20T03:58:21.621Z,54.70
2018-02-20T03:58:56.915Z,54.40
2018-02-20T03:59:32.224Z,60.53
2018-02-20T04:00:07.578Z,59.94
2018-02-20T04:00:47.445Z,67.92
2018-02-20T04:01:22.895Z,61.59
2018-02-20T04:01:58.357Z,56.86
2018-02-20T04:02:33.572Z,64.66
2018-02-20T04:03:09.278Z,49.93
2018-02-20T04:03:44.540Z,75.00
2018-02-20T04:04:19.732Z,264.61
2018-02-20T04:04:55.050Z,53.27
2018-02-20T04:05:30.685Z,120.00
2018-02-20T04:06:06.113Z,62.28
2018-02-20T04:06:42.684Z,53.30
2018-02-20T04:07:18.284Z,47.28
2018-02-20T04:07:53.638Z,69.58
2018-02-20T04:08:28.847Z,75.00
2018-02-20T04:09:03.967Z,74.31
2018-02-20T04:09:39.549Z,58.60
2018-02-20T04:10:14.874Z,68.86
2018-02-20T04:10:51.136Z,75.00
2018-02-20T04:11:27.411Z,75.00
2018-02-20T04:12:02.416Z,75.00
2018-02-20T04:12:38.180Z,75.00
2018-02-20T04:13:13.867Z,75.00
2018-02-20T04:13:49.158Z,75.00
2018-02-20T04:14:24.359Z,75.00
2018-02-20T04:14:59.565Z,329.06
2018-02-20T04:15:35.555Z,300.00
2018-02-20T04:16:11.172Z,320.26
2018-02-20T04:16:46.666Z,75.00
2018-02-20T04:17:22.069Z,75.00
2018-02-20T04:17:57.252Z,75.00
2018-02-20T04:18:32.951Z,75.00
2018-02-20T04:19:08.200Z,59.56
2018-02-20T04:19:44.864Z,245.29
2018-02-20T04:20:20.295Z,165.00
2018-02-20T04:20:55.667Z,165.00
2018-02-20T04:21:30.865Z,165.00
2018-02-20T04:22:06.176Z,160.31
2018-02-20T04:22:41.131Z,113.17
2018-02-20T04:23:16.867Z,120.00
2018-02-20T04:23:52.236Z,114.76
2018-02-20T04:24:27.571Z,75.00
2018-02-20T04:25:03.424Z,75.00
2018-02-20T04:25:39.001Z,63.08
2018-02-20T04:26:14.390Z,75.00
2018-02-20T04:26:49.777Z,75.00
2018-02-20T04:27:25.067Z,75.00
2018-02-20T04:28:00.354Z,75.00
2018-02-20T04:28:35.965Z,75.00
2018-02-20T04:29:11.195Z,75.00
2018-02-20T04:29:46.690Z,71.63
2018-02-20T04:30:22.134Z,98.27
2018-02-20T04:30:59.020Z,61.60
2018-02-20T04:31:34.636Z,72.34
2018-02-20T04:32:09.884Z,75.00
2018-02-20T04:32:45.364Z,66.62
2018-02-20T04:33:20.893Z,69.58
2018-02-20T04:33:56.193Z,75.00
2018-02-20T04:34:31.617Z,75.00
2018-02-20T04:35:07.239Z,57.09
2018-02-20T04:35:43.621Z,66.01
2018-02-20T04:36:18.806Z,63.04
2018-02-20T04:36:54.179Z,60.11
2018-02-20T04:37:29.715Z,75.00
2018-02-20T04:38:05.133Z,75.00
2018-02-20T04:38:40.528Z,75.00
2018-02-20T04:39:15.949Z,77.66
2018-02-20T04:39:51.642Z,77.84
2018-02-20T04:40:27.302Z,75.00
2018-02-20T04:41:02.503Z,75.00
2018-02-20T04:41:37.969Z,75.00
2018-02-20T04:42:13.282Z,75.00
2018-02-20T04:42:48.849Z,75.00
2018-02-20T04:43:24.134Z,73.68
2018-02-20T04:43:59.324Z,75.00
2018-02-20T04:44:34.835Z,75.00
2018-02-20T04:45:10.148Z,75.00
2018-02-20T04:45:45.555Z,75.00
2018-02-20T04:46:20.854Z,75.00
2018-02-20T04:46:56.556Z,75.00
2018-02-20T04:47:31.864Z,75.00
2018-02-20T04:48:07.051Z,75.00
2018-02-20T04:48:42.423Z,75.00
2018-02-20T04:49:17.819Z,75.00
2018-02-20T04:49:52.889Z,75.00
2018-02-20T04:50:28.533Z,75.00
2018-02-20T04:51:03.940Z,75.00
2018-02-20T04:51:39.233Z,75.00
2018-02-20T04:52:14.437Z,75.00
2018-02-20T04:52:49.913Z,75.00
2018-02-20T04:53:25.338Z,75.00
2018-02-20T04:54:00.898Z,75.00
2018-02-20T04:54:36.187Z,75.00
2018-02-20T04:55:11.485Z,75.00
2018-02-20T04:55:47.413Z,75.00
2018-02-20T04:56:22.632Z,75.00
2018-02-20T04:56:57.713Z,75.00
2018-02-20T04:57:32.917Z,75.00
2018-02-20T04:58:08.023Z,75.00
2018-02-20T04:58:43.306Z,75.00
2018-02-20T04:59:18.693Z,75.00
2018-02-20T04:59:54.178Z,75.00
2018-02-20T05:00:29.620Z,75.00
2018-02-20T05:01:04.737Z,75.00
2018-02-20T05:01:40.639Z,75.00
2018-02-20T05:02:15.854Z,75.00
2018-02-20T05:02:53.770Z,75.00
2018-02-20T05:03:29.385Z,75.00
2018-02-20T05:04:04.464Z,75.00
2018-02-20T05:04:39.851Z,75.00
2018-02-20T05:05:16.244Z,75.00
2018-02-20T05:05:51.442Z,75.00
2018-02-20T05:06:26.530Z,239.71
2018-02-20T05:07:01.738Z,255.00
2018-02-20T05:07:36.837Z,255.00
2018-02-20T05:08:12.022Z,255.00
2018-02-20T05:08:47.289Z,255.00
2018-02-20T05:09:22.480Z,255.00
2018-02-20T05:09:58.142Z,255.00
2018-02-20T05:10:33.416Z,255.00
2018-02-20T05:11:08.904Z,255.00
2018-02-20T05:11:44.583Z,255.00
2018-02-20T05:12:19.899Z,255.00
2018-02-20T05:12:55.064Z,255.00
2018-02-20T05:13:30.271Z,255.00
2018-02-20T05:14:05.661Z,255.00
2018-02-20T05:14:41.028Z,255.00
2018-02-20T05:15:16.119Z,255.00
2018-02-20T05:15:51.743Z,255.00
2018-02-20T05:16:27.229Z,255.00
2018-02-20T05:17:02.559Z,255.00
2018-02-20T05:17:37.950Z,255.00
2018-02-20T05:18:13.133Z,255.00
2018-02-20T05:18:48.304Z,255.00
2018-02-20T05:19:23.497Z,255.00
2018-02-20T05:19:58.769Z,255.00
2018-02-20T05:20:34.182Z,255.00
2018-02-20T05:21:09.926Z,255.00
2018-02-20T05:21:45.226Z,255.00
2018-02-20T05:22:20.530Z,255.00
2018-02-20T05:22:56.047Z,255.00
2018-02-20T05:23:31.638Z,255.00
2018-02-20T05:24:06.949Z,255.00
2018-02-20T05:24:42.640Z,255.00
2018-02-20T05:25:17.943Z,255.00
2018-02-20T05:25:53.140Z,255.00
2018-02-20T05:26:28.537Z,255.00
2018-02-20T05:27:03.986Z,255.00
2018-02-20T05:27:39.276Z,255.00
2018-02-20T05:28:14.491Z,255.00
2018-02-20T05:28:50.061Z,255.00
2018-02-20T05:29:25.359Z,255.00
2018-02-20T05:30:00.637Z,255.00
2018-02-20T05:30:36.728Z,255.00
2018-02-20T05:31:12.180Z,255.00
2018-02-20T05:31:47.759Z,255.00
2018-02-20T05:32:23.085Z,255.00
2018-02-20T05:32:58.167Z,250.97
2018-02-20T05:33:33.674Z,210.00
2018-02-20T05:34:08.971Z,210.00
2018-02-20T05:34:44.574Z,210.00
2018-02-20T05:35:20.311Z,210.00
2018-02-20T05:35:55.821Z,210.00
2018-02-20T05:36:31.222Z,210.00
2018-02-20T05:37:06.831Z,210.00
2018-02-20T05:37:42.251Z,210.00
2018-02-20T05:38:17.966Z,210.00
2018-02-20T05:38:53.242Z,210.00
2018-02-20T05:39:28.543Z,270.79
2018-02-20T05:40:03.860Z,297.34
2018-02-20T05:40:39.751Z,255.00
2018-02-20T05:41:15.168Z,255.00
2018-02-20T05:41:50.950Z,255.00
2018-02-20T05:42:26.460Z,255.00
2018-02-20T05:43:01.577Z,255.00
2018-02-20T05:43:36.777Z,255.00
2018-02-20T05:44:12.291Z,255.00
2018-02-20T05:44:47.768Z,255.00
2018-02-20T05:45:22.995Z,255.00
2018-02-20T05:45:58.400Z,255.00
2018-02-20T05:46:33.633Z,255.00
2018-02-20T05:47:09.032Z,255.00
2018-02-20T05:47:44.718Z,255.00
2018-02-20T05:48:20.056Z,219.70
2018-02-20T05:48:55.326Z,210.00
2018-02-20T05:49:30.741Z,210.00
2018-02-20T05:50:06.160Z,210.00
2018-02-20T05:50:41.738Z,210.00
2018-02-20T05:51:17.366Z,210.00
2018-02-20T05:51:52.660Z,210.00
2018-02-20T05:52:27.954Z,210.00
2018-02-20T05:53:03.372Z,210.00
2018-02-20T05:53:38.848Z,210.00
2018-02-20T05:54:14.153Z,210.00
2018-02-20T05:54:49.532Z,210.00
2018-02-20T05:55:25.231Z,210.00
2018-02-20T05:56:00.510Z,210.00
2018-02-20T05:56:35.767Z,210.00
2018-02-20T05:57:11.178Z,210.00
2018-02-20T05:57:46.582Z,210.00
2018-02-20T05:58:22.092Z,210.00
2018-02-20T05:58:57.490Z,210.00
2018-02-20T05:59:32.817Z,210.00
2018-02-20T06:00:08.323Z,210.00
2018-02-20T06:00:46.391Z,210.00
2018-02-20T06:01:22.141Z,193.57
2018-02-20T06:01:57.421Z,165.00
2018-02-20T06:02:32.617Z,165.00
2018-02-20T06:03:07.740Z,165.00
2018-02-20T06:03:43.134Z,165.00
2018-02-20T06:04:18.538Z,165.00
2018-02-20T06:04:53.615Z,165.00
2018-02-20T06:05:28.823Z,72.75
2018-02-20T06:06:04.066Z,30.00
2018-02-20T06:06:39.491Z,97.22
2018-02-20T06:07:14.796Z,146.75
2018-02-20T06:07:50.085Z,165.00
2018-02-20T06:08:25.592Z,165.00
2018-02-20T06:09:00.871Z,165.00
2018-02-20T06:09:36.422Z,165.00
2018-02-20T06:10:11.619Z,165.00
2018-02-20T06:10:49.015Z,247.39
2018-02-20T06:11:24.544Z,161.46
2018-02-20T06:11:59.921Z,165.00
2018-02-20T06:12:35.247Z,165.00
2018-02-20T06:13:10.454Z,165.00
2018-02-20T06:13:46.259Z,165.00
2018-02-20T06:14:21.645Z,165.00
2018-02-20T06:14:57.030Z,165.00
2018-02-20T06:15:32.156Z,165.00
2018-02-20T06:16:07.554Z,165.00
2018-02-20T06:16:43.162Z,165.00
2018-02-20T06:17:18.585Z,165.00
2018-02-20T06:17:53.776Z,165.00
2018-02-20T06:18:29.179Z,165.00
2018-02-20T06:19:04.597Z,165.00
2018-02-20T06:19:40.098Z,165.00
2018-02-20T06:20:15.437Z,165.00
2018-02-20T06:20:51.433Z,165.00
2018-02-20T06:21:27.092Z,165.00
2018-02-20T06:22:02.596Z,165.00
2018-02-20T06:22:38.482Z,165.00
2018-02-20T06:23:13.996Z,165.00
2018-02-20T06:23:49.373Z,165.00
2018-02-20T06:24:24.680Z,165.00
2018-02-20T06:24:59.883Z,165.00
2018-02-20T06:25:35.590Z,165.00
2018-02-20T06:26:14.001Z,165.00
2018-02-20T06:26:49.402Z,165.00
2018-02-20T06:27:24.616Z,165.00
2018-02-20T06:27:59.907Z,165.00
2018-02-20T06:28:35.605Z,165.00
2018-02-20T06:29:10.936Z,165.00
2018-02-20T06:29:46.399Z,165.00
2018-02-20T06:30:21.760Z,165.00
2018-02-20T06:30:56.902Z,165.00
2018-02-20T06:31:32.128Z,165.00
2018-02-20T06:32:07.556Z,165.00
2018-02-20T06:32:42.643Z,165.00
2018-02-20T06:33:18.161Z,165.00
2018-02-20T06:33:53.552Z,165.00
2018-02-20T06:34:28.865Z,165.00
2018-02-20T06:35:04.073Z,165.00
2018-02-20T06:35:39.853Z,165.00
2018-02-20T06:36:14.985Z,165.00
2018-02-20T06:36:50.171Z,165.00
2018-02-20T06:37:25.461Z,165.00
2018-02-20T06:38:00.937Z,165.00
2018-02-20T06:38:36.641Z,165.00
2018-02-20T06:39:11.951Z,165.00
2018-02-20T06:39:47.028Z,165.00
2018-02-20T06:40:23.026Z,165.00
2018-02-20T06:40:59.009Z,165.00
2018-02-20T06:41:34.323Z,165.00
2018-02-20T06:42:09.646Z,165.00
2018-02-20T06:42:45.724Z,165.00
2018-02-20T06:43:21.128Z,165.00
2018-02-20T06:43:56.742Z,165.00
2018-02-20T06:44:32.143Z,161.71
2018-02-20T06:45:08.182Z,72.34
2018-02-20T06:45:44.298Z,75.00
2018-02-20T06:46:19.592Z,75.00
2018-02-20T06:46:54.893Z,75.00
2018-02-20T06:47:30.224Z,75.00
2018-02-20T06:48:05.340Z,73.68
2018-02-20T06:48:42.725Z,255.00
2018-02-20T06:49:20.227Z,255.00
2018-02-20T06:49:55.511Z,87.70
2018-02-20T06:50:30.940Z,75.00
2018-02-20T06:51:10.533Z,75.00
2018-02-20T06:51:46.160Z,75.00
2018-02-20T06:52:21.374Z,75.00
2018-02-20T06:52:59.869Z,75.00
2018-02-20T06:53:35.180Z,75.00
2018-02-20T06:54:10.305Z,75.00
2018-02-20T06:54:45.679Z,75.00
2018-02-20T06:55:21.389Z,75.00
2018-02-20T06:55:56.857Z,75.00
2018-02-20T06:56:32.284Z,75.00
2018-02-20T06:57:07.712Z,75.00
2018-02-20T06:57:43.435Z,75.00
2018-02-20T06:58:19.034Z,75.00
2018-02-20T06:58:54.523Z,75.00
2018-02-20T06:59:29.912Z,295.07
2018-02-20T07:00:05.019Z,300.00
2018-02-20T07:00:41.389Z,300.00
2018-02-20T07:01:16.991Z,267.40
2018-02-20T07:01:52.616Z,210.00
2018-02-20T07:02:27.915Z,210.00
2018-02-20T07:03:03.611Z,210.00
2018-02-20T07:03:39.122Z,210.00
2018-02-20T07:04:14.536Z,210.00
2018-02-20T07:04:50.321Z,210.00
2018-02-20T07:05:25.537Z,210.00
2018-02-20T07:06:00.930Z,210.00
2018-02-20T07:06:36.735Z,203.79
2018-02-20T07:07:12.262Z,75.00
2018-02-20T07:07:47.557Z,75.00
2018-02-20T07:08:23.048Z,75.00
2018-02-20T07:08:58.244Z,75.00
2018-02-20T07:09:33.441Z,75.00
2018-02-20T07:10:08.775Z,75.00
2018-02-20T07:10:44.751Z,60.86
2018-02-20T07:11:20.461Z,52.52
2018-02-20T07:11:55.639Z,75.00
2018-02-20T07:12:30.864Z,74.31
2018-02-20T07:13:06.694Z,66.01
2018-02-20T07:13:41.967Z,75.00
2018-02-20T07:14:17.169Z,70.97
2018-02-20T07:14:52.340Z,75.00
2018-02-20T07:15:27.968Z,75.00
2018-02-20T07:16:04.750Z,74.31
2018-02-20T07:16:40.023Z,68.17
2018-02-20T07:17:15.502Z,65.30
2018-02-20T07:17:50.904Z,71.70
2018-02-20T07:18:26.118Z,68.86
2018-02-20T07:19:01.732Z,66.01
2018-02-20T07:19:37.132Z,70.25
2018-02-20T07:20:12.325Z,75.00
2018-02-20T07:20:50.213Z,72.34
2018-02-20T07:21:25.424Z,70.25
2018-02-20T07:22:00.902Z,56.32
2018-02-20T07:22:36.340Z,75.00
2018-02-20T07:23:11.726Z,75.00
2018-02-20T07:23:47.017Z,68.03
2018-02-20T07:24:22.536Z,61.58
2018-02-20T07:24:59.014Z,35.42
2018-02-20T07:25:36.115Z,61.60
2018-02-20T07:26:11.213Z,75.00
2018-02-20T07:26:46.980Z,66.74
2018-02-20T07:27:22.513Z,75.00
2018-02-20T07:27:57.888Z,64.34